createdAt,value
2022-10-11T00:00:00.292Z,79
2022-10-11T00:05:00.222Z,79
2022-10-11T00:10:00.256Z,79
2022-10-11T00:15:00.232Z,79
2022-10-11T00:20:00.254Z,79
2022-10-11T00:25:00.255Z,79
2022-10-11T00:30:00.265Z,79
2022-10-11T00:35:00.213Z,79
2022-10-11T00:40:00.268Z,79
2022-10-11T00:45:00.248Z,79
2022-10-11T00:50:00.228Z,79
2022-10-11T00:55:00.225Z,79
2022-10-11T01:00:00.253Z,79
2022-10-11T01:05:25.114Z,79
2022-10-11T01:10:00.228Z,79
2022-10-11T01:15:00.246Z,79
2022-10-11T01:20:00.287Z,79
2022-10-11T01:25:00.243Z,80
2022-10-11T01:30:00.267Z,80
2022-10-11T01:35:00.251Z,80
2022-10-11T01:40:00.257Z,79
2022-10-11T01:45:00.245Z,79
2022-10-11T01:50:00.284Z,79
2022-10-11T01:55:10.163Z,79
2022-10-11T02:00:00.281Z,79
2022-10-11T02:05:00.240Z,79
2022-10-11T02:10:00.268Z,79
2022-10-11T02:15:00.209Z,80
2022-10-11T02:20:00.266Z,80
2022-10-11T02:25:00.235Z,80
2022-10-11T02:30:00.282Z,80
2022-10-11T02:35:00.233Z,80
2022-10-11T02:40:00.279Z,80
2022-10-11T02:45:00.235Z,80
2022-10-11T02:50:00.293Z,80
2022-10-11T02:55:00.225Z,80
2022-10-11T03:00:00.299Z,80
2022-10-11T03:05:00.273Z,80
2022-10-11T03:10:00.370Z,80
2022-10-11T03:15:00.240Z,80
2022-10-11T03:20:00.294Z,80
2022-10-11T03:25:04.093Z,80
2022-10-11T03:30:00.328Z,80
2022-10-11T03:35:00.254Z,80
2022-10-11T03:40:00.271Z,80
2022-10-11T03:45:00.267Z,80
2022-10-11T03:50:00.376Z,80
2022-10-11T03:55:00.259Z,80
2022-10-11T04:00:00.291Z,80
2022-10-11T04:05:00.271Z,80
2022-10-11T04:10:00.264Z,80
2022-10-11T04:15:00.263Z,81
2022-10-11T04:20:00.274Z,80
2022-10-11T04:25:00.293Z,80
2022-10-11T04:30:00.339Z,80
2022-10-11T04:35:00.244Z,80
2022-10-11T04:40:00.301Z,80
2022-10-11T04:45:00.256Z,80
2022-10-11T04:50:00.315Z,80
2022-10-11T04:55:00.246Z,80
2022-10-11T05:00:00.281Z,80
2022-10-11T05:05:00.250Z,80
2022-10-11T05:10:00.287Z,80
2022-10-11T05:15:00.255Z,80
2022-10-11T05:20:00.309Z,80
2022-10-11T05:25:00.266Z,80
2022-10-11T05:30:00.298Z,80
2022-10-11T05:35:00.252Z,80
2022-10-11T05:40:00.267Z,80
2022-10-11T05:45:00.259Z,80
2022-10-11T05:50:00.263Z,80
2022-10-11T05:55:00.256Z,80
2022-10-11T06:00:00.302Z,80
2022-10-11T06:05:00.451Z,80
2022-10-11T06:10:00.289Z,81
2022-10-11T06:15:00.243Z,81
2022-10-11T06:20:00.285Z,81
2022-10-11T06:25:00.272Z,81
2022-10-11T06:30:00.328Z,81
2022-10-11T06:35:00.243Z,81
2022-10-11T06:40:00.282Z,81
2022-10-11T06:45:00.322Z,81
2022-10-11T06:50:00.285Z,81
2022-10-11T06:55:00.244Z,81
2022-10-11T07:00:00.321Z,81
2022-10-11T07:05:00.290Z,81
2022-10-11T07:10:00.304Z,81
2022-10-11T07:15:00.272Z,81
2022-10-11T07:20:00.298Z,81
2022-10-11T07:25:00.379Z,81
2022-10-11T07:30:00.292Z,81
2022-10-11T07:35:00.293Z,81
2022-10-11T07:40:00.311Z,81
2022-10-11T07:45:00.274Z,81
2022-10-11T07:50:00.300Z,81
2022-10-11T07:55:00.231Z,81
2022-10-11T08:00:00.298Z,82
2022-10-11T08:05:00.260Z,82
2022-10-11T08:10:00.277Z,82
2022-10-11T08:15:00.268Z,83
2022-10-11T08:20:00.282Z,83
2022-10-11T08:25:00.256Z,83
2022-10-11T08:30:00.311Z,83
2022-10-11T08:35:00.269Z,83
2022-10-11T08:40:00.295Z,83
2022-10-11T08:45:10.485Z,83
2022-10-11T08:50:00.271Z,83
2022-10-11T08:55:00.262Z,83
2022-10-11T09:00:00.292Z,84
2022-10-11T09:05:00.281Z,84
2022-10-11T09:10:00.271Z,84
2022-10-11T09:15:00.217Z,84
2022-10-11T09:20:00.287Z,84
2022-10-11T09:25:00.235Z,84
2022-10-11T09:30:00.341Z,84
2022-10-11T09:35:00.250Z,84
2022-10-11T09:40:00.292Z,84
2022-10-11T09:45:00.253Z,84
2022-10-11T09:50:00.295Z,84
2022-10-11T09:55:00.304Z,84
2022-10-11T10:00:00.329Z,84
2022-10-11T10:05:00.272Z,84
2022-10-11T10:10:00.295Z,83
2022-10-11T10:15:00.246Z,83
2022-10-11T10:20:00.280Z,82
2022-10-11T10:25:00.278Z,81
2022-10-11T10:30:00.332Z,81
2022-10-11T10:35:00.271Z,79
2022-10-11T10:40:00.284Z,78
2022-10-11T10:45:00.287Z,77
2022-10-11T10:50:00.341Z,76
2022-10-11T10:55:00.254Z,76
2022-10-11T11:00:00.342Z,75
2022-10-11T11:10:00.281Z,74
2022-10-11T11:15:00.263Z,73
2022-10-11T11:20:00.314Z,73
2022-10-11T11:25:00.252Z,71
2022-10-11T11:30:00.341Z,70
2022-10-11T11:35:00.261Z,70
2022-10-11T11:40:00.277Z,70
2022-10-11T11:45:00.267Z,70
2022-10-11T11:50:00.311Z,69
2022-10-11T11:55:03.961Z,69
2022-10-11T12:00:00.329Z,69
2022-10-11T12:05:00.241Z,69
2022-10-11T12:10:00.307Z,68
2022-10-11T12:15:00.224Z,68
2022-10-11T12:20:00.310Z,68
2022-10-11T12:25:00.279Z,68
2022-10-11T12:30:00.331Z,68
2022-10-11T12:35:00.276Z,67
2022-10-11T12:40:00.292Z,67
2022-10-11T12:45:00.262Z,68
2022-10-11T12:50:00.281Z,67
2022-10-11T12:55:00.249Z,66
2022-10-11T13:00:00.286Z,66
2022-10-11T13:05:00.241Z,65
2022-10-11T13:10:00.303Z,64
2022-10-11T13:15:00.248Z,65
2022-10-11T13:20:00.298Z,65
2022-10-11T13:25:00.288Z,64
2022-10-11T13:30:00.338Z,64
2022-10-11T13:35:00.283Z,65
2022-10-11T13:40:00.276Z,64
2022-10-11T13:45:00.263Z,64
2022-10-11T13:50:00.276Z,63
2022-10-11T13:55:00.293Z,63
2022-10-11T14:00:00.291Z,63
2022-10-11T14:05:00.266Z,63
2022-10-11T14:10:00.279Z,63
2022-10-11T14:15:00.253Z,63
2022-10-11T14:20:05.043Z,62
2022-10-11T14:25:00.275Z,63
2022-10-11T14:30:24.472Z,62
2022-10-11T14:35:00.244Z,61
2022-10-11T14:40:00.279Z,61
2022-10-11T14:45:00.248Z,62
2022-10-11T14:50:00.340Z,61
2022-10-11T14:55:00.285Z,62
2022-10-11T15:00:00.314Z,62
2022-10-11T15:05:00.257Z,62
2022-10-11T15:10:00.295Z,61
2022-10-11T15:15:00.240Z,61
2022-10-11T15:20:00.294Z,61
2022-10-11T15:25:00.282Z,61
2022-10-11T15:30:00.332Z,62
2022-10-11T15:35:00.272Z,62
2022-10-11T15:40:00.384Z,62
2022-10-11T15:45:00.285Z,62
2022-10-11T15:50:00.394Z,62
2022-10-11T15:55:00.268Z,62
2022-10-11T16:00:00.508Z,62
2022-10-11T16:05:00.287Z,62
2022-10-11T16:10:00.310Z,63
2022-10-11T16:15:00.263Z,63
2022-10-11T16:20:00.285Z,63
2022-10-11T16:25:00.296Z,63
2022-10-11T16:30:00.349Z,63
2022-10-11T16:35:00.264Z,63
2022-10-11T16:40:00.305Z,64
2022-10-11T16:45:00.261Z,64
2022-10-11T16:50:05.293Z,64
2022-10-11T16:55:00.244Z,64
2022-10-11T17:00:00.311Z,65
2022-10-11T17:05:00.263Z,65
2022-10-11T17:10:00.304Z,65
2022-10-11T17:15:00.250Z,65
2022-10-11T17:20:00.266Z,66
2022-10-11T17:25:00.258Z,66
2022-10-11T17:30:00.303Z,66
2022-10-11T17:35:00.391Z,67
2022-10-11T17:40:00.290Z,67
2022-10-11T17:45:00.248Z,67
2022-10-11T17:50:00.300Z,67
2022-10-11T17:55:00.255Z,68
2022-10-11T18:00:00.275Z,68
2022-10-11T18:05:00.273Z,68
2022-10-11T18:10:00.285Z,68
2022-10-11T18:15:00.256Z,69
2022-10-11T18:20:00.280Z,69
2022-10-11T18:25:00.316Z,69
2022-10-11T18:30:00.337Z,70
2022-10-11T18:35:00.239Z,70
2022-10-11T18:40:00.273Z,70
2022-10-11T18:45:00.252Z,70
2022-10-11T18:50:00.276Z,70
2022-10-11T18:55:00.258Z,71
2022-10-11T19:00:07.314Z,71
2022-10-11T19:05:00.268Z,71
2022-10-11T19:10:00.296Z,72
2022-10-11T19:15:00.295Z,71
2022-10-11T19:20:00.323Z,72
2022-10-11T19:25:00.260Z,72
2022-10-11T19:30:00.337Z,72
2022-10-11T19:35:05.224Z,72
2022-10-11T19:40:00.292Z,73
2022-10-11T19:45:00.268Z,73
2022-10-11T19:50:05.291Z,73
2022-10-11T19:55:05.207Z,73
2022-10-11T20:00:00.317Z,73
2022-10-11T20:05:00.259Z,73
2022-10-11T20:10:00.275Z,73
2022-10-11T20:15:00.280Z,74
2022-10-11T20:20:00.286Z,74
2022-10-11T20:25:00.247Z,74
2022-10-11T20:30:00.323Z,74
2022-10-11T20:35:00.247Z,74
2022-10-11T20:40:00.283Z,74
2022-10-11T20:45:00.239Z,75
2022-10-11T20:50:00.315Z,75
2022-10-11T20:55:00.262Z,75
2022-10-11T21:00:00.256Z,75
2022-10-11T21:05:00.244Z,75
2022-10-11T21:10:00.258Z,75
2022-10-11T21:15:00.232Z,75
2022-10-11T21:20:00.296Z,75
2022-10-11T21:25:00.236Z,75
2022-10-11T21:30:00.303Z,75
2022-10-11T21:35:00.248Z,75
2022-10-11T21:40:00.240Z,76
2022-10-11T21:45:00.198Z,76
2022-10-11T21:50:00.262Z,76
2022-10-11T21:55:00.232Z,76
2022-10-11T22:00:00.312Z,76
2022-10-11T22:05:00.243Z,76
2022-10-11T22:10:00.275Z,76
2022-10-11T22:15:00.210Z,76
2022-10-11T22:20:00.254Z,76
2022-10-11T22:25:00.242Z,76
2022-10-11T22:30:00.279Z,76
2022-10-11T22:35:00.194Z,76
2022-10-11T22:40:00.253Z,76
2022-10-11T22:45:00.230Z,76
2022-10-11T22:50:00.238Z,76
2022-10-11T22:55:00.233Z,76
2022-10-11T23:00:00.270Z,76
2022-10-11T23:05:00.221Z,77
2022-10-11T23:10:00.309Z,77
2022-10-11T23:15:00.287Z,77
2022-10-11T23:20:00.255Z,77
2022-10-11T23:25:00.217Z,77
2022-10-11T23:30:00.238Z,77
2022-10-11T23:35:00.239Z,77
2022-10-11T23:40:00.240Z,77
2022-10-11T23:45:00.251Z,77
2022-10-11T23:50:00.305Z,77
2022-10-11T23:55:00.257Z,77
